sensor_id;sensor_type;location;lat;lon;timestamp;temperature;humidity
34279;DHT22;20538;51.528;9.942;2023-05-10T00:02:14;15.30;96.20
34279;DHT22;20538;51.528;9.942;2023-05-10T00:04:39;15.30;96.20
34279;DHT22;20538;51.528;9.942;2023-05-10T00:07:05;15.30;96.30
34279;DHT22;20538;51.528;9.942;2023-05-10T00:09:30;15.20;96.10
34279;DHT22;20538;51.528;9.942;2023-05-10T00:11:56;15.20;96.30
34279;DHT22;20538;51.528;9.942;2023-05-10T00:14:23;15.20;96.20
34279;DHT22;20538;51.528;9.942;2023-05-10T00:16:49;15.20;96.60
34279;DHT22;20538;51.528;9.942;2023-05-10T00:19:14;15.20;96.90
34279;DHT22;20538;51.528;9.942;2023-05-10T00:21:40;15.20;96.70
34279;DHT22;20538;51.528;9.942;2023-05-10T00:24:06;15.20;97.00
34279;DHT22;20538;51.528;9.942;2023-05-10T00:26:31;15.20;96.70
34279;DHT22;20538;51.528;9.942;2023-05-10T00:28:57;15.20;97.20
34279;DHT22;20538;51.528;9.942;2023-05-10T00:31:23;15.10;97.40
34279;DHT22;20538;51.528;9.942;2023-05-10T00:33:49;15.10;97.40
34279;DHT22;20538;51.528;9.942;2023-05-10T00:36:15;15.10;97.70
34279;DHT22;20538;51.528;9.942;2023-05-10T00:38:40;15.10;97.70
34279;DHT22;20538;51.528;9.942;2023-05-10T00:41:06;15.10;97.30
34279;DHT22;20538;51.528;9.942;2023-05-10T00:43:32;15.10;97.80
34279;DHT22;20538;51.528;9.942;2023-05-10T00:45:57;15.10;97.70
34279;DHT22;20538;51.528;9.942;2023-05-10T00:48:23;15.10;97.70
34279;DHT22;20538;51.528;9.942;2023-05-10T00:50:49;15.10;98.30
34279;DHT22;20538;51.528;9.942;2023-05-10T00:53:15;15.10;98.00
34279;DHT22;20538;51.528;9.942;2023-05-10T00:55:41;15.10;98.30
34279;DHT22;20538;51.528;9.942;2023-05-10T00:58:07;15.20;98.20
34279;DHT22;20538;51.528;9.942;2023-05-10T01:00:33;15.20;98.30
34279;DHT22;20538;51.528;9.942;2023-05-10T01:02:59;15.20;98.40
34279;DHT22;20538;51.528;9.942;2023-05-10T01:05:25;15.20;98.40
34279;DHT22;20538;51.528;9.942;2023-05-10T01:07:52;15.20;98.60
34279;DHT22;20538;51.528;9.942;2023-05-10T01:10:18;15.20;98.40
34279;DHT22;20538;51.528;9.942;2023-05-10T01:12:46;15.20;98.50
34279;DHT22;20538;51.528;9.942;2023-05-10T01:15:12;15.10;98.70
34279;DHT22;20538;51.528;9.942;2023-05-10T01:17:40;15.10;98.60
34279;DHT22;20538;51.528;9.942;2023-05-10T01:20:09;15.10;98.90
34279;DHT22;20538;51.528;9.942;2023-05-10T01:23:09;15.10;99.00
34279;DHT22;20538;51.528;9.942;2023-05-10T01:31:59;15.10;99.30
34279;DHT22;20538;51.528;9.942;2023-05-10T01:37:51;15.10;99.90
34279;DHT22;20538;51.528;9.942;2023-05-10T01:40:32;15.10;99.90
34279;DHT22;20538;51.528;9.942;2023-05-10T01:43:05;15.10;99.90
34279;DHT22;20538;51.528;9.942;2023-05-10T01:45:47;15.10;99.90
34279;DHT22;20538;51.528;9.942;2023-05-10T01:48:16;15.10;99.90
34279;DHT22;20538;51.528;9.942;2023-05-10T01:50:45;15.00;99.90
34279;DHT22;20538;51.528;9.942;2023-05-10T01:53:13;15.00;99.90
34279;DHT22;20538;51.528;9.942;2023-05-10T01:55:50;15.00;99.90
34279;DHT22;20538;51.528;9.942;2023-05-10T01:58:22;15.00;99.90
34279;DHT22;20538;51.528;9.942;2023-05-10T02:00:50;15.00;99.90
34279;DHT22;20538;51.528;9.942;2023-05-10T02:03:18;15.00;99.90
34279;DHT22;20538;51.528;9.942;2023-05-10T02:05:46;15.00;99.90
34279;DHT22;20538;51.528;9.942;2023-05-10T02:08:13;15.00;99.90
34279;DHT22;20538;51.528;9.942;2023-05-10T02:10:40;15.00;99.90
34279;DHT22;20538;51.528;9.942;2023-05-10T02:13:07;15.00;99.90
34279;DHT22;20538;51.528;9.942;2023-05-10T02:15:34;15.00;99.90
34279;DHT22;20538;51.528;9.942;2023-05-10T02:18:02;15.00;99.90
34279;DHT22;20538;51.528;9.942;2023-05-10T02:20:29;15.00;99.90
34279;DHT22;20538;51.528;9.942;2023-05-10T02:22:57;15.00;99.90
34279;DHT22;20538;51.528;9.942;2023-05-10T02:25:24;15.00;99.90
34279;DHT22;20538;51.528;9.942;2023-05-10T02:27:54;15.00;99.90
34279;DHT22;20538;51.528;9.942;2023-05-10T02:30:21;15.00;99.90
34279;DHT22;20538;51.528;9.942;2023-05-10T02:32:47;15.00;99.90
34279;DHT22;20538;51.528;9.942;2023-05-10T02:35:14;15.00;99.90
34279;DHT22;20538;51.528;9.942;2023-05-10T02:37:41;15.00;99.90
34279;DHT22;20538;51.528;9.942;2023-05-10T02:40:07;15.00;99.90
34279;DHT22;20538;51.528;9.942;2023-05-10T02:42:36;15.00;99.90
34279;DHT22;20538;51.528;9.942;2023-05-10T02:45:07;14.90;99.90
34279;DHT22;20538;51.528;9.942;2023-05-10T02:47:33;14.90;99.90
34279;DHT22;20538;51.528;9.942;2023-05-10T02:49:59;14.90;99.90
34279;DHT22;20538;51.528;9.942;2023-05-10T02:52:28;14.90;99.90
34279;DHT22;20538;51.528;9.942;2023-05-10T02:54:59;14.80;99.90
34279;DHT22;20538;51.528;9.942;2023-05-10T02:57:28;14.70;99.90
34279;DHT22;20538;51.528;9.942;2023-05-10T02:59:55;14.70;99.90
34279;DHT22;20538;51.528;9.942;2023-05-10T03:02:21;14.60;99.90
34279;DHT22;20538;51.528;9.942;2023-05-10T03:04:47;14.50;99.90
34279;DHT22;20538;51.528;9.942;2023-05-10T03:07:13;14.50;99.90
34279;DHT22;20538;51.528;9.942;2023-05-10T03:09:39;14.50;99.90
34279;DHT22;20538;51.528;9.942;2023-05-10T03:12:27;14.50;99.90
34279;DHT22;20538;51.528;9.942;2023-05-10T03:18:15;14.40;99.90
34279;DHT22;20538;51.528;9.942;2023-05-10T03:20:50;14.30;99.90
34279;DHT22;20538;51.528;9.942;2023-05-10T03:23:39;14.20;99.90
34279;DHT22;20538;51.528;9.942;2023-05-10T03:26:07;14.10;99.90
34279;DHT22;20538;51.528;9.942;2023-05-10T03:28:34;14.10;99.90
34279;DHT22;20538;51.528;9.942;2023-05-10T03:31:02;14.00;99.90
34279;DHT22;20538;51.528;9.942;2023-05-10T03:33:29;13.90;99.90
34279;DHT22;20538;51.528;9.942;2023-05-10T03:35:55;13.80;99.90
34279;DHT22;20538;51.528;9.942;2023-05-10T03:38:20;13.90;99.90
34279;DHT22;20538;51.528;9.942;2023-05-10T03:40:46;13.80;99.90
34279;DHT22;20538;51.528;9.942;2023-05-10T03:43:12;13.80;99.90
34279;DHT22;20538;51.528;9.942;2023-05-10T03:45:37;13.80;99.90
34279;DHT22;20538;51.528;9.942;2023-05-10T03:48:03;13.80;99.90
34279;DHT22;20538;51.528;9.942;2023-05-10T03:50:29;13.80;99.90
34279;DHT22;20538;51.528;9.942;2023-05-10T03:52:54;13.80;99.90
34279;DHT22;20538;51.528;9.942;2023-05-10T03:55:20;13.60;99.90
34279;DHT22;20538;51.528;9.942;2023-05-10T03:57:46;13.60;99.90
34279;DHT22;20538;51.528;9.942;2023-05-10T04:00:12;13.60;99.90
34279;DHT22;20538;51.528;9.942;2023-05-10T04:02:37;13.50;99.90
34279;DHT22;20538;51.528;9.942;2023-05-10T04:05:03;13.50;99.90
34279;DHT22;20538;51.528;9.942;2023-05-10T04:07:29;13.40;99.90
34279;DHT22;20538;51.528;9.942;2023-05-10T04:09:54;13.40;99.90
34279;DHT22;20538;51.528;9.942;2023-05-10T04:12:23;13.30;99.90
34279;DHT22;20538;51.528;9.942;2023-05-10T04:14:49;13.30;99.90
34279;DHT22;20538;51.528;9.942;2023-05-10T04:17:16;13.20;99.90
34279;DHT22;20538;51.528;9.942;2023-05-10T04:19:42;13.20;99.90
34279;DHT22;20538;51.528;9.942;2023-05-10T04:22:08;13.20;99.90
34279;DHT22;20538;51.528;9.942;2023-05-10T04:24:33;13.20;99.90
34279;DHT22;20538;51.528;9.942;2023-05-10T04:26:59;13.20;99.90
34279;DHT22;20538;51.528;9.942;2023-05-10T04:29:25;13.20;99.90
34279;DHT22;20538;51.528;9.942;2023-05-10T04:31:52;13.20;99.90
34279;DHT22;20538;51.528;9.942;2023-05-10T04:34:17;13.20;99.90
34279;DHT22;20538;51.528;9.942;2023-05-10T04:36:43;13.20;99.90
34279;DHT22;20538;51.528;9.942;2023-05-10T04:39:09;13.20;99.90
34279;DHT22;20538;51.528;9.942;2023-05-10T04:41:35;13.20;99.90
34279;DHT22;20538;51.528;9.942;2023-05-10T04:44:00;13.10;99.90
34279;DHT22;20538;51.528;9.942;2023-05-10T04:46:26;12.90;99.90
34279;DHT22;20538;51.528;9.942;2023-05-10T04:48:51;13.00;99.90
34279;DHT22;20538;51.528;9.942;2023-05-10T04:51:17;13.00;99.90
34279;DHT22;20538;51.528;9.942;2023-05-10T04:53:43;13.00;99.90
34279;DHT22;20538;51.528;9.942;2023-05-10T04:56:08;13.00;99.90
34279;DHT22;20538;51.528;9.942;2023-05-10T04:58:34;13.00;99.90
34279;DHT22;20538;51.528;9.942;2023-05-10T05:01:06;12.90;99.90
34279;DHT22;20538;51.528;9.942;2023-05-10T05:03:33;13.00;99.90
34279;DHT22;20538;51.528;9.942;2023-05-10T05:05:59;13.00;99.90
34279;DHT22;20538;51.528;9.942;2023-05-10T05:08:25;13.00;99.90
34279;DHT22;20538;51.528;9.942;2023-05-10T05:10:51;13.10;99.90
34279;DHT22;20538;51.528;9.942;2023-05-10T05:13:16;13.10;99.90
34279;DHT22;20538;51.528;9.942;2023-05-10T05:15:42;13.10;99.90
34279;DHT22;20538;51.528;9.942;2023-05-10T05:18:07;13.20;99.90
34279;DHT22;20538;51.528;9.942;2023-05-10T05:20:33;13.20;99.90
34279;DHT22;20538;51.528;9.942;2023-05-10T05:23:00;13.30;99.90
34279;DHT22;20538;51.528;9.942;2023-05-10T05:25:25;13.40;99.90
34279;DHT22;20538;51.528;9.942;2023-05-10T05:27:51;13.40;99.90
34279;DHT22;20538;51.528;9.942;2023-05-10T05:30:17;13.40;99.90
34279;DHT22;20538;51.528;9.942;2023-05-10T05:32:42;13.50;99.90
34279;DHT22;20538;51.528;9.942;2023-05-10T05:35:08;13.50;99.90
34279;DHT22;20538;51.528;9.942;2023-05-10T05:37:34;13.60;99.90
34279;DHT22;20538;51.528;9.942;2023-05-10T05:40:00;13.60;99.90
34279;DHT22;20538;51.528;9.942;2023-05-10T05:42:27;13.70;99.90
34279;DHT22;20538;51.528;9.942;2023-05-10T05:44:52;13.70;99.90
34279;DHT22;20538;51.528;9.942;2023-05-10T05:47:18;13.70;99.90
34279;DHT22;20538;51.528;9.942;2023-05-10T05:49:44;13.80;99.90
34279;DHT22;20538;51.528;9.942;2023-05-10T05:52:12;13.80;99.90
34279;DHT22;20538;51.528;9.942;2023-05-10T05:54:38;13.80;99.90
34279;DHT22;20538;51.528;9.942;2023-05-10T05:57:06;13.90;99.90
34279;DHT22;20538;51.528;9.942;2023-05-10T05:59:33;13.90;99.90
34279;DHT22;20538;51.528;9.942;2023-05-10T06:01:58;13.90;99.90
34279;DHT22;20538;51.528;9.942;2023-05-10T06:04:24;13.90;99.90
34279;DHT22;20538;51.528;9.942;2023-05-10T06:06:49;14.00;99.90
34279;DHT22;20538;51.528;9.942;2023-05-10T06:09:15;14.00;99.90
34279;DHT22;20538;51.528;9.942;2023-05-10T06:11:41;14.00;99.90
34279;DHT22;20538;51.528;9.942;2023-05-10T06:14:07;14.10;99.90
34279;DHT22;20538;51.528;9.942;2023-05-10T06:16:36;14.10;99.90
34279;DHT22;20538;51.528;9.942;2023-05-10T06:19:02;14.10;99.90
34279;DHT22;20538;51.528;9.942;2023-05-10T06:21:28;14.10;99.90
34279;DHT22;20538;51.528;9.942;2023-05-10T06:23:53;14.20;99.90
34279;DHT22;20538;51.528;9.942;2023-05-10T06:26:19;14.20;99.90
34279;DHT22;20538;51.528;9.942;2023-05-10T06:28:46;14.20;99.90
34279;DHT22;20538;51.528;9.942;2023-05-10T06:31:11;14.20;99.90
34279;DHT22;20538;51.528;9.942;2023-05-10T06:33:37;14.20;99.90
34279;DHT22;20538;51.528;9.942;2023-05-10T06:36:03;14.20;99.90
34279;DHT22;20538;51.528;9.942;2023-05-10T06:38:29;14.20;99.90
34279;DHT22;20538;51.528;9.942;2023-05-10T06:40:55;14.20;99.90
34279;DHT22;20538;51.528;9.942;2023-05-10T06:43:21;14.20;99.90
34279;DHT22;20538;51.528;9.942;2023-05-10T06:45:48;14.30;99.90
34279;DHT22;20538;51.528;9.942;2023-05-10T06:48:13;14.50;99.90
34279;DHT22;20538;51.528;9.942;2023-05-10T06:50:39;14.70;99.90
34279;DHT22;20538;51.528;9.942;2023-05-10T06:53:05;14.90;99.90
34279;DHT22;20538;51.528;9.942;2023-05-10T06:55:30;15.00;99.90
34279;DHT22;20538;51.528;9.942;2023-05-10T06:57:56;15.00;99.90
34279;DHT22;20538;51.528;9.942;2023-05-10T07:00:24;14.80;99.90
34279;DHT22;20538;51.528;9.942;2023-05-10T07:02:50;14.70;99.90
34279;DHT22;20538;51.528;9.942;2023-05-10T07:05:16;14.60;99.90
34279;DHT22;20538;51.528;9.942;2023-05-10T07:07:42;14.50;99.90
34279;DHT22;20538;51.528;9.942;2023-05-10T07:10:09;14.50;99.90
34279;DHT22;20538;51.528;9.942;2023-05-10T07:12:35;14.60;99.90
34279;DHT22;20538;51.528;9.942;2023-05-10T07:15:01;14.60;99.90
34279;DHT22;20538;51.528;9.942;2023-05-10T07:17:26;14.50;99.90
34279;DHT22;20538;51.528;9.942;2023-05-10T07:19:52;14.50;99.90
34279;DHT22;20538;51.528;9.942;2023-05-10T07:22:18;14.60;99.90
34279;DHT22;20538;51.528;9.942;2023-05-10T07:24:44;14.80;99.90
34279;DHT22;20538;51.528;9.942;2023-05-10T07:27:09;14.70;99.90
34279;DHT22;20538;51.528;9.942;2023-05-10T07:29:37;14.60;99.90
34279;DHT22;20538;51.528;9.942;2023-05-10T07:32:03;14.70;99.90
34279;DHT22;20538;51.528;9.942;2023-05-10T07:34:29;14.80;99.90
34279;DHT22;20538;51.528;9.942;2023-05-10T07:36:57;15.00;99.90
34279;DHT22;20538;51.528;9.942;2023-05-10T07:39:23;15.20;99.90
34279;DHT22;20538;51.528;9.942;2023-05-10T07:41:48;15.10;99.90
34279;DHT22;20538;51.528;9.942;2023-05-10T07:44:14;15.20;99.90
34279;DHT22;20538;51.528;9.942;2023-05-10T07:46:40;15.40;99.90
34279;DHT22;20538;51.528;9.942;2023-05-10T07:49:06;15.10;99.90
34279;DHT22;20538;51.528;9.942;2023-05-10T07:51:31;15.30;99.90
34279;DHT22;20538;51.528;9.942;2023-05-10T07:53:57;15.40;99.90
34279;DHT22;20538;51.528;9.942;2023-05-10T07:56:28;15.50;99.90
34279;DHT22;20538;51.528;9.942;2023-05-10T07:58:59;15.60;99.90
34279;DHT22;20538;51.528;9.942;2023-05-10T08:01:25;15.40;99.90
34279;DHT22;20538;51.528;9.942;2023-05-10T08:03:51;15.30;99.90
34279;DHT22;20538;51.528;9.942;2023-05-10T08:06:19;15.20;99.90
34279;DHT22;20538;51.528;9.942;2023-05-10T08:08:46;15.10;99.90
34279;DHT22;20538;51.528;9.942;2023-05-10T08:11:17;15.20;99.90
34279;DHT22;20538;51.528;9.942;2023-05-10T08:13:44;15.40;99.90
34279;DHT22;20538;51.528;9.942;2023-05-10T08:16:11;15.20;99.90
34279;DHT22;20538;51.528;9.942;2023-05-10T08:18:37;15.30;99.90
34279;DHT22;20538;51.528;9.942;2023-05-10T08:21:03;15.30;99.90
34279;DHT22;20538;51.528;9.942;2023-05-10T08:23:29;15.50;99.90
34279;DHT22;20538;51.528;9.942;2023-05-10T08:25:55;15.80;99.90
34279;DHT22;20538;51.528;9.942;2023-05-10T08:28:20;15.60;99.90
34279;DHT22;20538;51.528;9.942;2023-05-10T08:30:46;16.10;99.90
34279;DHT22;20538;51.528;9.942;2023-05-10T08:33:11;16.10;99.90
34279;DHT22;20538;51.528;9.942;2023-05-10T08:35:37;16.00;99.90
34279;DHT22;20538;51.528;9.942;2023-05-10T08:38:03;16.10;99.90
34279;DHT22;20538;51.528;9.942;2023-05-10T08:40:29;16.20;99.90
34279;DHT22;20538;51.528;9.942;2023-05-10T08:42:59;16.40;99.90
34279;DHT22;20538;51.528;9.942;2023-05-10T08:45:32;16.20;99.90
34279;DHT22;20538;51.528;9.942;2023-05-10T08:47:59;16.00;99.90
34279;DHT22;20538;51.528;9.942;2023-05-10T08:50:25;15.90;99.90
34279;DHT22;20538;51.528;9.942;2023-05-10T08:52:53;15.60;99.90
34279;DHT22;20538;51.528;9.942;2023-05-10T08:55:20;15.90;99.90
34279;DHT22;20538;51.528;9.942;2023-05-10T08:57:48;16.30;99.90
34279;DHT22;20538;51.528;9.942;2023-05-10T09:00:14;16.80;99.90
34279;DHT22;20538;51.528;9.942;2023-05-10T09:02:41;17.10;99.90
34279;DHT22;20538;51.528;9.942;2023-05-10T09:05:08;16.70;99.90
34279;DHT22;20538;51.528;9.942;2023-05-10T09:07:35;16.70;99.90
34279;DHT22;20538;51.528;9.942;2023-05-10T09:10:02;16.80;99.90
34279;DHT22;20538;51.528;9.942;2023-05-10T09:12:29;16.60;99.90
34279;DHT22;20538;51.528;9.942;2023-05-10T09:14:55;16.60;99.90
34279;DHT22;20538;51.528;9.942;2023-05-10T09:17:24;16.90;99.90
34279;DHT22;20538;51.528;9.942;2023-05-10T09:19:56;16.60;99.90
34279;DHT22;20538;51.528;9.942;2023-05-10T09:22:22;16.50;99.90
34279;DHT22;20538;51.528;9.942;2023-05-10T09:25:03;16.70;99.90
34279;DHT22;20538;51.528;9.942;2023-05-10T09:27:29;17.10;99.90
34279;DHT22;20538;51.528;9.942;2023-05-10T09:29:55;17.00;99.90
34279;DHT22;20538;51.528;9.942;2023-05-10T09:32:21;17.00;99.90
34279;DHT22;20538;51.528;9.942;2023-05-10T09:34:49;16.70;99.90
34279;DHT22;20538;51.528;9.942;2023-05-10T09:37:15;16.10;99.90
34279;DHT22;20538;51.528;9.942;2023-05-10T09:39:41;16.20;99.90
34279;DHT22;20538;51.528;9.942;2023-05-10T09:42:09;16.00;99.90
34279;DHT22;20538;51.528;9.942;2023-05-10T09:44:36;15.80;99.90
34279;DHT22;20538;51.528;9.942;2023-05-10T09:47:02;16.20;99.90
34279;DHT22;20538;51.528;9.942;2023-05-10T09:49:28;16.30;99.90
34279;DHT22;20538;51.528;9.942;2023-05-10T09:52:05;16.40;99.90
34279;DHT22;20538;51.528;9.942;2023-05-10T09:54:32;16.90;99.90
34279;DHT22;20538;51.528;9.942;2023-05-10T09:56:58;17.00;99.90
34279;DHT22;20538;51.528;9.942;2023-05-10T09:59:27;17.30;99.90
34279;DHT22;20538;51.528;9.942;2023-05-10T10:01:56;16.70;99.90
34279;DHT22;20538;51.528;9.942;2023-05-10T10:04:22;16.80;99.90
34279;DHT22;20538;51.528;9.942;2023-05-10T10:06:59;17.00;99.90
34279;DHT22;20538;51.528;9.942;2023-05-10T10:09:26;17.10;99.90
34279;DHT22;20538;51.528;9.942;2023-05-10T10:11:52;17.40;99.90
34279;DHT22;20538;51.528;9.942;2023-05-10T10:14:20;17.00;99.90
34279;DHT22;20538;51.528;9.942;2023-05-10T10:16:47;17.30;99.90
34279;DHT22;20538;51.528;9.942;2023-05-10T10:19:13;17.80;99.90
34279;DHT22;20538;51.528;9.942;2023-05-10T10:21:40;17.80;99.90
34279;DHT22;20538;51.528;9.942;2023-05-10T10:24:06;18.20;99.90
34279;DHT22;20538;51.528;9.942;2023-05-10T10:26:35;18.30;99.90
34279;DHT22;20538;51.528;9.942;2023-05-10T10:29:23;17.30;99.90
34279;DHT22;20538;51.528;9.942;2023-05-10T10:34:46;17.90;99.90
34279;DHT22;20538;51.528;9.942;2023-05-10T10:37:12;17.90;99.90
34279;DHT22;20538;51.528;9.942;2023-05-10T10:39:37;17.60;99.90
34279;DHT22;20538;51.528;9.942;2023-05-10T10:42:04;17.80;99.90
34279;DHT22;20538;51.528;9.942;2023-05-10T10:44:34;18.00;99.90
34279;DHT22;20538;51.528;9.942;2023-05-10T11:00:36;17.90;99.90
34279;DHT22;20538;51.528;9.942;2023-05-10T11:05:46;17.00;99.90
34279;DHT22;20538;51.528;9.942;2023-05-10T11:10:48;16.90;99.90
34279;DHT22;20538;51.528;9.942;2023-05-10T11:13:14;17.10;99.90
34279;DHT22;20538;51.528;9.942;2023-05-10T11:15:40;17.10;99.90
34279;DHT22;20538;51.528;9.942;2023-05-10T11:20:43;17.30;99.90
34279;DHT22;20538;51.528;9.942;2023-05-10T11:23:13;17.40;99.90
34279;DHT22;20538;51.528;9.942;2023-05-10T11:25:44;17.50;99.90
34279;DHT22;20538;51.528;9.942;2023-05-10T11:28:18;17.30;99.90
34279;DHT22;20538;51.528;9.942;2023-05-10T11:30:45;17.40;99.90
34279;DHT22;20538;51.528;9.942;2023-05-10T11:33:16;17.10;99.90
34279;DHT22;20538;51.528;9.942;2023-05-10T11:35:42;17.60;99.90
34279;DHT22;20538;51.528;9.942;2023-05-10T11:38:11;18.20;99.90
34279;DHT22;20538;51.528;9.942;2023-05-10T11:40:38;18.80;99.90
34279;DHT22;20538;51.528;9.942;2023-05-10T11:43:04;18.10;99.90
34279;DHT22;20538;51.528;9.942;2023-05-10T11:45:34;18.30;99.90
34279;DHT22;20538;51.528;9.942;2023-05-10T11:48:01;18.70;99.90
34279;DHT22;20538;51.528;9.942;2023-05-10T11:50:27;18.70;99.90
34279;DHT22;20538;51.528;9.942;2023-05-10T11:52:53;19.20;99.90
34279;DHT22;20538;51.528;9.942;2023-05-10T11:55:23;19.20;99.90
34279;DHT22;20538;51.528;9.942;2023-05-10T11:57:54;19.00;99.90
34279;DHT22;20538;51.528;9.942;2023-05-10T12:00:21;18.30;99.90
34279;DHT22;20538;51.528;9.942;2023-05-10T12:02:47;18.40;99.90
34279;DHT22;20538;51.528;9.942;2023-05-10T12:05:13;18.20;99.90
34279;DHT22;20538;51.528;9.942;2023-05-10T12:07:39;18.40;99.90
34279;DHT22;20538;51.528;9.942;2023-05-10T12:10:14;19.10;99.90
34279;DHT22;20538;51.528;9.942;2023-05-10T12:12:41;19.60;99.90
34279;DHT22;20538;51.528;9.942;2023-05-10T12:15:11;19.30;99.90
34279;DHT22;20538;51.528;9.942;2023-05-10T12:17:38;18.70;99.90
34279;DHT22;20538;51.528;9.942;2023-05-10T12:20:15;18.50;99.90
34279;DHT22;20538;51.528;9.942;2023-05-10T12:23:02;18.30;99.90
34279;DHT22;20538;51.528;9.942;2023-05-10T12:25:36;18.40;99.90
34279;DHT22;20538;51.528;9.942;2023-05-10T12:28:08;17.90;99.90
34279;DHT22;20538;51.528;9.942;2023-05-10T12:30:35;18.10;99.90
34279;DHT22;20538;51.528;9.942;2023-05-10T12:33:02;17.80;99.90
34279;DHT22;20538;51.528;9.942;2023-05-10T12:35:32;18.70;99.90
34279;DHT22;20538;51.528;9.942;2023-05-10T12:37:58;18.80;99.90
34279;DHT22;20538;51.528;9.942;2023-05-10T12:40:24;18.70;99.90
34279;DHT22;20538;51.528;9.942;2023-05-10T12:42:50;18.80;99.90
34279;DHT22;20538;51.528;9.942;2023-05-10T12:45:17;18.70;99.90
34279;DHT22;20538;51.528;9.942;2023-05-10T12:47:43;19.00;99.90
34279;DHT22;20538;51.528;9.942;2023-05-10T12:50:09;19.50;99.90
34279;DHT22;20538;51.528;9.942;2023-05-10T12:52:35;19.60;99.90
34279;DHT22;20538;51.528;9.942;2023-05-10T12:55:01;19.70;99.90
34279;DHT22;20538;51.528;9.942;2023-05-10T12:57:28;19.20;99.90
34279;DHT22;20538;51.528;9.942;2023-05-10T12:59:54;20.00;99.90
34279;DHT22;20538;51.528;9.942;2023-05-10T13:02:20;19.80;99.90
34279;DHT22;20538;51.528;9.942;2023-05-10T13:04:48;19.70;99.90
34279;DHT22;20538;51.528;9.942;2023-05-10T13:07:13;18.80;99.90
34279;DHT22;20538;51.528;9.942;2023-05-10T13:09:39;19.30;99.90
34279;DHT22;20538;51.528;9.942;2023-05-10T13:12:05;18.80;99.90
34279;DHT22;20538;51.528;9.942;2023-05-10T13:14:31;19.00;99.90
34279;DHT22;20538;51.528;9.942;2023-05-10T13:16:56;18.40;99.90
34279;DHT22;20538;51.528;9.942;2023-05-10T13:19:22;19.10;99.90
34279;DHT22;20538;51.528;9.942;2023-05-10T13:21:48;19.80;99.90
34279;DHT22;20538;51.528;9.942;2023-05-10T13:24:13;19.80;99.90
34279;DHT22;20538;51.528;9.942;2023-05-10T13:26:40;20.50;99.90
34279;DHT22;20538;51.528;9.942;2023-05-10T13:29:06;20.30;99.90
34279;DHT22;20538;51.528;9.942;2023-05-10T13:31:31;19.70;99.90
34279;DHT22;20538;51.528;9.942;2023-05-10T13:33:57;19.90;99.90
34279;DHT22;20538;51.528;9.942;2023-05-10T13:36:23;20.30;99.90
34279;DHT22;20538;51.528;9.942;2023-05-10T13:38:49;20.70;99.90
34279;DHT22;20538;51.528;9.942;2023-05-10T13:41:15;21.00;99.90
34279;DHT22;20538;51.528;9.942;2023-05-10T13:43:41;21.00;99.90
34279;DHT22;20538;51.528;9.942;2023-05-10T13:46:07;20.90;99.90
34279;DHT22;20538;51.528;9.942;2023-05-10T13:48:33;20.40;99.90
34279;DHT22;20538;51.528;9.942;2023-05-10T13:50:58;20.40;99.90
34279;DHT22;20538;51.528;9.942;2023-05-10T13:53:24;20.60;99.90
34279;DHT22;20538;51.528;9.942;2023-05-10T13:55:50;20.80;99.90
34279;DHT22;20538;51.528;9.942;2023-05-10T13:58:16;20.90;99.90
34279;DHT22;20538;51.528;9.942;2023-05-10T14:00:41;20.20;99.90
34279;DHT22;20538;51.528;9.942;2023-05-10T14:03:07;20.70;99.90
34279;DHT22;20538;51.528;9.942;2023-05-10T14:05:36;20.90;99.90
34279;DHT22;20538;51.528;9.942;2023-05-10T14:08:01;20.90;99.90
34279;DHT22;20538;51.528;9.942;2023-05-10T14:10:29;20.90;99.90
34279;DHT22;20538;51.528;9.942;2023-05-10T14:12:55;20.50;99.90
34279;DHT22;20538;51.528;9.942;2023-05-10T14:15:21;20.80;99.90
34279;DHT22;20538;51.528;9.942;2023-05-10T14:17:46;20.60;99.90
34279;DHT22;20538;51.528;9.942;2023-05-10T14:20:12;20.60;99.90
34279;DHT22;20538;51.528;9.942;2023-05-10T14:22:37;21.00;99.90
34279;DHT22;20538;51.528;9.942;2023-05-10T14:25:04;21.00;99.90
34279;DHT22;20538;51.528;9.942;2023-05-10T14:27:30;20.90;99.90
34279;DHT22;20538;51.528;9.942;2023-05-10T14:29:56;20.90;99.90
34279;DHT22;20538;51.528;9.942;2023-05-10T14:32:22;20.70;99.90
34279;DHT22;20538;51.528;9.942;2023-05-10T14:34:47;20.30;99.90
34279;DHT22;20538;51.528;9.942;2023-05-10T14:37:14;20.10;99.90
34279;DHT22;20538;51.528;9.942;2023-05-10T14:39:41;19.60;99.90
34279;DHT22;20538;51.528;9.942;2023-05-10T14:42:08;19.30;99.90
34279;DHT22;20538;51.528;9.942;2023-05-10T14:44:34;19.10;99.90
34279;DHT22;20538;51.528;9.942;2023-05-10T14:47:00;18.90;99.90
34279;DHT22;20538;51.528;9.942;2023-05-10T14:49:26;18.60;99.90
34279;DHT22;20538;51.528;9.942;2023-05-10T14:51:51;18.60;99.90
34279;DHT22;20538;51.528;9.942;2023-05-10T14:54:19;18.60;99.90
34279;DHT22;20538;51.528;9.942;2023-05-10T14:56:45;18.40;99.90
34279;DHT22;20538;51.528;9.942;2023-05-10T14:59:11;18.30;99.90
34279;DHT22;20538;51.528;9.942;2023-05-10T15:01:37;18.20;99.90
34279;DHT22;20538;51.528;9.942;2023-05-10T15:04:06;18.00;99.90
34279;DHT22;20538;51.528;9.942;2023-05-10T15:06:35;18.00;99.90
34279;DHT22;20538;51.528;9.942;2023-05-10T15:09:01;18.00;99.90
34279;DHT22;20538;51.528;9.942;2023-05-10T15:11:28;18.00;99.90
34279;DHT22;20538;51.528;9.942;2023-05-10T15:13:54;17.90;99.90
34279;DHT22;20538;51.528;9.942;2023-05-10T15:16:20;18.00;99.90
34279;DHT22;20538;51.528;9.942;2023-05-10T15:18:46;18.00;99.90
34279;DHT22;20538;51.528;9.942;2023-05-10T15:21:12;18.20;99.90
34279;DHT22;20538;51.528;9.942;2023-05-10T15:23:37;18.20;99.90
34279;DHT22;20538;51.528;9.942;2023-05-10T15:26:03;18.20;99.90
34279;DHT22;20538;51.528;9.942;2023-05-10T15:28:29;18.30;99.90
34279;DHT22;20538;51.528;9.942;2023-05-10T15:30:55;18.50;99.90
34279;DHT22;20538;51.528;9.942;2023-05-10T15:33:22;18.60;99.90
34279;DHT22;20538;51.528;9.942;2023-05-10T15:35:48;18.70;99.90
34279;DHT22;20538;51.528;9.942;2023-05-10T15:38:14;18.80;99.90
34279;DHT22;20538;51.528;9.942;2023-05-10T15:40:40;18.70;99.90
34279;DHT22;20538;51.528;9.942;2023-05-10T15:43:05;18.60;99.90
34279;DHT22;20538;51.528;9.942;2023-05-10T15:45:32;18.20;99.90
34279;DHT22;20538;51.528;9.942;2023-05-10T15:48:01;18.00;99.90
34279;DHT22;20538;51.528;9.942;2023-05-10T15:50:27;18.10;99.90
34279;DHT22;20538;51.528;9.942;2023-05-10T15:52:52;18.40;99.90
34279;DHT22;20538;51.528;9.942;2023-05-10T15:55:19;18.50;99.90
34279;DHT22;20538;51.528;9.942;2023-05-10T15:57:45;18.30;99.90
34279;DHT22;20538;51.528;9.942;2023-05-10T16:00:14;18.00;99.90
34279;DHT22;20538;51.528;9.942;2023-05-10T16:02:40;17.90;99.90
34279;DHT22;20538;51.528;9.942;2023-05-10T16:05:07;17.90;99.90
34279;DHT22;20538;51.528;9.942;2023-05-10T16:07:34;17.90;99.90